Time;durP1;ratioP1;P1;durP2;ratioP2;P2;SDS_P1;SDS_P2;PMS_P1;PMS_P2;Temp;Humidity;BMP_temperature;BMP_pressure;BME280_temperature;BME280_humidity;BME280_pressure;Samples;Min_cycle;Max_cycle;Signal;HPM_P1;HPM_P2
2020/12/14 00:01:04;;;;;;;94.17;27.77;;;5.20;95.00;;;;;;5030567;28;20115;-66
2020/12/14 00:03:30;;;;;;;87.10;26.77;;;5.10;95.00;;;;;;5030455;28;20059;-66
2020/12/14 00:05:56;;;;;;;92.93;27.93;;;5.10;95.00;;;;;;5030590;28;20116;-66
2020/12/14 00:08:22;;;;;;;89.33;27.77;;;5.10;95.00;;;;;;5031024;28;20045;-65
2020/12/14 00:10:48;;;;;;;85.73;28.07;;;5.20;95.00;;;;;;5029774;28;20045;-65
2020/12/14 00:13:13;;;;;;;87.40;28.20;;;5.10;95.00;;;;;;5028290;28;20041;-66
2020/12/14 00:15:39;;;;;;;93.07;28.93;;;5.10;95.10;;;;;;5030917;28;20048;-66
2020/12/14 00:18:04;;;;;;;94.33;29.93;;;5.10;95.10;;;;;;5030503;28;20517;-66
2020/12/14 00:20:30;;;;;;;83.90;26.40;;;5.10;95.10;;;;;;5029527;28;20039;-66
2020/12/14 00:22:56;;;;;;;90.13;28.23;;;5.10;95.10;;;;;;5028942;28;20060;-65
2020/12/14 00:25:21;;;;;;;87.10;29.70;;;5.20;95.20;;;;;;5030056;28;20117;-66
2020/12/14 00:27:47;;;;;;;76.20;25.37;;;5.10;95.10;;;;;;5030882;28;20044;-66
2020/12/14 00:30:13;;;;;;;77.80;26.40;;;5.20;95.20;;;;;;5029079;28;20030;-66
2020/12/14 00:32:39;;;;;;;85.93;27.77;;;5.20;95.10;;;;;;5012462;28;20031;-66
2020/12/14 00:35:04;;;;;;;78.83;27.77;;;5.20;95.10;;;;;;5030777;28;20030;-65
2020/12/14 00:37:30;;;;;;;78.70;27.93;;;5.20;95.20;;;;;;5030176;28;20117;-66
2020/12/14 00:39:56;;;;;;;73.17;26.10;;;5.20;95.10;;;;;;5030620;28;20045;-65
2020/12/14 00:42:22;;;;;;;77.90;26.53;;;5.20;95.10;;;;;;5029588;28;20049;-66
2020/12/14 00:44:47;;;;;;;72.33;26.73;;;5.20;95.10;;;;;;5030637;28;20087;-66
2020/12/14 00:47:15;;;;;;;66.97;25.37;;;5.20;95.20;;;;;;5030654;28;20162;-66
2020/12/14 00:49:41;;;;;;;68.43;24.67;;;5.20;95.10;;;;;;5030272;28;20120;-66
2020/12/14 00:52:07;;;;;;;65.77;25.33;;;5.20;95.10;;;;;;5032559;28;20172;-66
2020/12/14 00:54:33;;;;;;;68.63;26.87;;;5.20;95.10;;;;;;5034014;28;20041;-66
2020/12/14 00:56:59;;;;;;;72.67;26.93;;;5.20;95.30;;;;;;5034241;28;20045;-66
2020/12/14 00:59:24;;;;;;;68.97;24.80;;;5.20;95.20;;;;;;5034193;28;20128;-65
2020/12/14 01:01:52;;;;;;;72.03;25.27;;;5.20;95.20;;;;;;5033199;28;20068;-66
2020/12/14 01:04:18;;;;;;;71.40;26.40;;;5.20;95.10;;;;;;5016594;28;20220;-65
2020/12/14 01:06:44;;;;;;;59.53;24.93;;;5.20;95.10;;;;;;5033666;28;20037;-66
2020/12/14 01:09:10;;;;;;;66.13;24.93;;;5.20;95.10;;;;;;5032873;28;20034;-65
2020/12/14 01:11:36;;;;;;;67.40;25.40;;;5.20;95.10;;;;;;5033604;28;20513;-65
2020/12/14 01:14:01;;;;;;;67.90;25.63;;;5.20;95.10;;;;;;5032083;28;20057;-65
2020/12/14 01:16:27;;;;;;;58.00;22.53;;;5.20;95.10;;;;;;5033961;28;20041;-65
2020/12/14 01:18:53;;;;;;;57.27;21.43;;;5.20;95.10;;;;;;5032672;28;20517;-65
2020/12/14 01:21:22;;;;;;;61.60;24.87;;;5.20;95.10;;;;;;5033516;28;20030;-65
2020/12/14 01:23:49;;;;;;;60.60;23.37;;;5.20;95.10;;;;;;5033017;28;20735;-65
2020/12/14 01:26:15;;;;;;;65.83;26.57;;;5.20;95.10;;;;;;5033231;28;20043;-65
2020/12/14 01:28:41;;;;;;;55.00;22.37;;;5.20;95.10;;;;;;5033724;28;20033;-65
2020/12/14 01:31:07;;;;;;;61.47;24.63;;;5.20;95.10;;;;;;5032239;28;20049;-70
2020/12/14 01:33:32;;;;;;;59.37;23.87;;;5.20;95.10;;;;;;5033038;28;20045;-65
2020/12/14 01:35:58;;;;;;;53.47;20.73;;;5.20;95.10;;;;;;5033548;28;20041;-65
2020/12/14 01:38:24;;;;;;;57.10;22.60;;;5.20;95.10;;;;;;5033473;28;20042;-65
2020/12/14 01:40:51;;;;;;;56.67;24.10;;;5.20;95.10;;;;;;5015847;28;20034;-65
2020/12/14 01:43:17;;;;;;;58.40;24.33;;;5.20;95.10;;;;;;5032425;28;20124;-66
2020/12/14 01:45:43;;;;;;;64.63;25.87;;;5.20;95.10;;;;;;5033373;28;20095;-65
2020/12/14 01:48:09;;;;;;;57.90;24.23;;;5.20;95.10;;;;;;5033487;28;20051;-65
2020/12/14 01:50:35;;;;;;;62.60;25.43;;;5.10;95.00;;;;;;5031617;28;20449;-65
2020/12/14 01:53:02;;;;;;;54.20;24.03;;;5.10;95.00;;;;;;5032644;28;20659;-65
2020/12/14 01:55:39;;;;;;;59.97;23.97;;;5.10;95.10;;;;;;5033001;28;20194;-66
2020/12/14 01:58:04;;;;;;;64.43;25.83;;;5.10;95.10;;;;;;5031881;28;20029;-65
2020/12/14 02:00:30;;;;;;;55.23;22.80;;;5.10;95.10;;;;;;5033155;28;20080;-65
2020/12/14 02:02:56;;;;;;;58.83;24.10;;;5.10;95.10;;;;;;5031917;28;20026;-65
2020/12/14 02:05:21;;;;;;;63.07;25.90;;;5.10;95.10;;;;;;5032975;28;20398;-65
2020/12/14 02:07:47;;;;;;;56.40;25.43;;;5.10;95.00;;;;;;5032690;28;20068;-65
2020/12/14 02:10:13;;;;;;;62.57;25.87;;;5.00;95.00;;;;;;5033073;28;20033;-66
2020/12/14 02:12:39;;;;;;;64.73;24.63;;;5.00;95.00;;;;;;5030853;28;20033;-66
2020/12/14 02:15:05;;;;;;;58.17;25.23;;;5.00;95.00;;;;;;5032662;28;20509;-65
2020/12/14 02:17:31;;;;;;;52.97;22.37;;;5.00;95.00;;;;;;5032837;28;20490;-65
2020/12/14 02:19:57;;;;;;;63.20;25.73;;;5.00;95.00;;;;;;5032175;28;20094;-66
2020/12/14 02:22:25;;;;;;;56.37;24.30;;;5.00;95.10;;;;;;5032070;28;20509;-66
2020/12/14 02:25:01;;;;;;;57.60;24.50;;;5.00;95.10;;;;;;5032348;28;20045;-70
2020/12/14 02:27:29;;;;;;;58.33;24.50;;;5.00;95.10;;;;;;5032655;28;20034;-65
2020/12/14 02:29:55;;;;;;;62.97;26.07;;;4.90;95.10;;;;;;5032717;28;20121;-65
2020/12/14 02:32:22;;;;;;;61.77;25.00;;;4.90;95.10;;;;;;5030085;28;20163;-65
2020/12/14 02:34:48;;;;;;;55.90;24.17;;;4.90;95.10;;;;;;5032557;28;20037;-65
2020/12/14 02:37:23;;;;;;;60.20;25.83;;;4.90;95.10;;;;;;5030773;28;20482;-66
2020/12/14 02:39:49;;;;;;;59.83;25.93;;;5.00;95.10;;;;;;5032596;28;20120;-65
2020/12/14 02:42:17;;;;;;;59.50;25.27;;;4.90;95.10;;;;;;5031225;28;20518;-66
2020/12/14 02:44:44;;;;;;;63.23;24.77;;;4.90;95.10;;;;;;5014605;28;20037;-66
2020/12/14 02:47:11;;;;;;;58.87;24.40;;;4.90;95.00;;;;;;5031921;28;20128;-66
2020/12/14 02:49:37;;;;;;;52.57;23.47;;;4.80;95.00;;;;;;5030998;28;20041;-66
2020/12/14 02:52:04;;;;;;;56.97;23.37;;;4.80;94.90;;;;;;5031500;28;20030;-66
2020/12/14 02:54:30;;;;;;;56.77;23.67;;;4.80;95.10;;;;;;5031792;28;20065;-66
2020/12/14 02:56:56;;;;;;;56.50;23.33;;;4.80;95.10;;;;;;5031940;28;20115;-66
2020/12/14 02:59:22;;;;;;;54.57;23.03;;;4.80;95.10;;;;;;5032000;28;20520;-65
2020/12/14 03:01:49;;;;;;;55.53;20.13;;;4.70;94.90;;;;;;5029703;28;20033;-65
2020/12/14 03:04:16;;;;;;;53.83;23.43;;;4.70;95.00;;;;;;5030707;28;20041;-65
2020/12/14 03:06:46;;;;;;;54.03;23.20;;;4.70;95.00;;;;;;5031504;28;20083;-66
2020/12/14 03:09:13;;;;;;;48.73;20.70;;;4.70;95.00;;;;;;5030610;28;20060;-65
2020/12/14 03:11:39;;;;;;;49.40;22.57;;;4.70;95.10;;;;;;5030874;28;20125;-65
2020/12/14 03:14:06;;;;;;;49.40;22.80;;;4.60;95.10;;;;;;5029305;28;20041;-65
2020/12/14 03:16:32;;;;;;;52.20;20.70;;;4.70;95.10;;;;;;5031572;28;20038;-66
2020/12/14 03:18:58;;;;;;;55.80;22.67;;;4.60;94.90;;;;;;5031318;28;20053;-65
2020/12/14 03:21:23;;;;;;;52.13;22.30;;;4.60;95.10;;;;;;5031677;28;20463;-65
2020/12/14 03:23:49;;;;;;;46.57;22.50;;;4.60;95.10;;;;;;5030472;28;20041;-66
2020/12/14 03:26:16;;;;;;;49.43;22.90;;;4.60;95.10;;;;;;5031542;28;20121;-66
2020/12/14 03:28:42;;;;;;;50.83;22.67;;;4.60;95.10;;;;;;5030397;28;20117;-65
2020/12/14 03:31:08;;;;;;;44.73;21.13;;;4.60;95.10;;;;;;5031105;28;20083;-66
2020/12/14 03:33:34;;;;;;;45.90;22.27;;;4.50;95.20;;;;;;5030813;28;20029;-65
2020/12/14 03:35:59;;;;;;;49.50;22.63;;;4.60;95.30;;;;;;5029828;28;20061;-66
2020/12/14 03:38:25;;;;;;;41.03;20.37;;;4.60;95.30;;;;;;5031366;28;20065;-66
2020/12/14 03:40:51;;;;;;;40.00;17.13;;;4.60;95.30;;;;;;5030067;28;20033;-66
2020/12/14 03:43:17;;;;;;;43.80;20.63;;;4.60;95.30;;;;;;5028881;28;20125;-66
2020/12/14 03:45:43;;;;;;;41.03;20.20;;;4.60;95.50;;;;;;5031232;28;20053;-66
2020/12/14 03:48:08;;;;;;;42.70;19.67;;;4.60;95.30;;;;;;5029459;28;20448;-66
2020/12/14 03:50:34;;;;;;;38.43;19.23;;;4.60;95.30;;;;;;5031248;28;20048;-65
2020/12/14 03:53:00;;;;;;;36.93;18.90;;;4.70;95.40;;;;;;5030604;28;20463;-66
2020/12/14 03:55:25;;;;;;;32.60;15.47;;;4.70;95.40;;;;;;5030675;28;20490;-66
2020/12/14 03:57:51;;;;;;;39.17;18.53;;;4.70;95.40;;;;;;5031128;28;20083;-65
2020/12/14 04:00:17;;;;;;;38.73;19.50;;;4.70;95.30;;;;;;5030998;28;20137;-66
2020/12/14 04:02:43;;;;;;;35.63;16.60;;;4.70;95.30;;;;;;5030078;28;20040;-66
2020/12/14 04:05:09;;;;;;;36.53;18.43;;;4.70;95.20;;;;;;5031148;28;20045;-66
2020/12/14 04:07:35;;;;;;;36.13;18.13;;;4.70;95.20;;;;;;5030740;28;20125;-65
2020/12/14 04:10:01;;;;;;;41.33;19.50;;;4.70;95.20;;;;;;5024022;28;20176;-66
2020/12/14 04:12:26;;;;;;;35.73;17.67;;;4.70;95.10;;;;;;5008237;28;20037;-66
2020/12/14 04:14:52;;;;;;;34.63;16.80;;;4.70;95.20;;;;;;5010248;28;20473;-66
2020/12/14 04:17:18;;;;;;;35.87;18.57;;;4.70;95.30;;;;;;5009146;28;20064;-65
2020/12/14 04:19:43;;;;;;;36.77;16.77;;;4.70;95.30;;;;;;5010545;28;20069;-66
2020/12/14 04:22:09;;;;;;;32.23;16.37;;;4.70;95.30;;;;;;5010412;28;20053;-66
2020/12/14 04:24:35;;;;;;;32.37;17.13;;;4.70;95.30;;;;;;5009073;28;20038;-66
2020/12/14 04:27:03;;;;;;;30.40;15.33;;;4.80;95.40;;;;;;5013316;28;20037;-66
2020/12/14 04:29:28;;;;;;;33.83;17.23;;;4.80;95.40;;;;;;5015088;28;20038;-65
2020/12/14 04:31:54;;;;;;;31.23;16.10;;;4.80;95.40;;;;;;5012466;28;20038;-66
2020/12/14 04:34:20;;;;;;;30.90;15.83;;;4.80;95.40;;;;;;5014977;28;20571;-65
2020/12/14 04:36:47;;;;;;;29.57;15.53;;;4.80;95.40;;;;;;5012015;28;20116;-66
2020/12/14 04:39:13;;;;;;;32.37;16.17;;;4.90;95.70;;;;;;5025808;28;20399;-66
2020/12/14 04:41:40;;;;;;;28.43;15.60;;;4.90;95.50;;;;;;5015649;28;20034;-65
2020/12/14 04:44:08;;;;;;;26.70;14.53;;;4.90;95.50;;;;;;5034030;28;20128;-66
2020/12/14 04:46:34;;;;;;;25.80;13.70;;;5.00;95.50;;;;;;5032805;28;20030;-65
2020/12/14 04:49:03;;;;;;;24.23;13.17;;;5.00;95.40;;;;;;5033890;28;20037;-66
2020/12/14 04:51:31;;;;;;;26.53;14.13;;;5.10;95.40;;;;;;5016188;28;20038;-66
2020/12/14 04:53:56;;;;;;;24.67;13.67;;;5.10;95.30;;;;;;5023848;28;20509;-65
2020/12/14 04:56:27;;;;;;;26.23;13.30;;;5.10;95.30;;;;;;5025169;28;20136;-66
2020/12/14 04:58:55;;;;;;;25.45;14.00;;;5.10;95.20;;;;;;5020855;28;20129;-65
2020/12/14 05:01:21;;;;;;;24.73;12.50;;;5.10;95.30;;;;;;5011664;28;20161;-66
2020/12/14 05:03:47;;;;;;;24.77;13.43;;;5.10;95.50;;;;;;5025101;28;20124;-66
2020/12/14 05:06:13;;;;;;;21.57;11.90;;;5.10;95.30;;;;;;5032470;28;20120;-66
2020/12/14 05:08:38;;;;;;;23.77;12.80;;;5.10;95.30;;;;;;5022615;28;20079;-65
2020/12/14 05:11:04;;;;;;;26.03;12.17;;;5.20;95.30;;;;;;5023150;28;20053;-66
2020/12/14 05:13:30;;;;;;;19.63;11.83;;;5.20;95.30;;;;;;5030254;28;20057;-66
2020/12/14 05:15:56;;;;;;;23.03;11.50;;;5.20;95.30;;;;;;5032456;28;20513;-66
2020/12/14 05:18:23;;;;;;;20.60;11.60;;;5.20;95.40;;;;;;5030760;28;20124;-66
2020/12/14 05:20:59;;;;;;;20.97;11.27;;;5.30;95.20;;;;;;5032843;28;20060;-66
2020/12/14 05:23:27;;;;;;;17.90;10.00;;;5.30;95.10;;;;;;5033145;28;20116;-66
2020/12/14 05:26:07;;;;;;;22.27;11.67;;;5.30;95.00;;;;;;5031497;28;20441;-66
2020/12/14 05:28:34;;;;;;;23.67;11.30;;;5.30;95.00;;;;;;5011212;28;20088;-66
2020/12/14 05:31:00;;;;;;;23.03;11.30;;;5.30;94.90;;;;;;5014911;28;20033;-65
2020/12/14 05:33:27;;;;;;;16.83;9.33;;;5.30;94.80;;;;;;5015606;28;20060;-65
2020/12/14 05:35:53;;;;;;;21.70;11.07;;;5.30;94.60;;;;;;5009717;28;20561;-66
2020/12/14 05:38:20;;;;;;;21.37;10.50;;;5.20;94.50;;;;;;5014362;28;20045;-65
2020/12/14 05:40:55;;;;;;;20.30;11.57;;;5.20;94.50;;;;;;5013763;28;20026;-65
2020/12/14 05:43:26;;;;;;;20.47;11.03;;;5.10;94.50;;;;;;5011089;28;20091;-65
2020/12/14 05:45:52;;;;;;;20.42;11.10;;;5.10;94.50;;;;;;5011863;28;20045;-65
2020/12/14 05:48:32;;;;;;;18.53;10.50;;;5.00;94.50;;;;;;5012363;28;20033;-65
2020/12/14 05:51:06;;;;;;;20.40;10.50;;;5.00;94.50;;;;;;5011237;28;20136;-65
2020/12/14 05:53:50;;;;;;;19.90;10.97;;;5.00;94.50;;;;;;5010237;28;20029;-65
2020/12/14 05:56:17;;;;;;;18.13;10.00;;;4.90;94.50;;;;;;5010836;28;20026;-65
2020/12/14 05:58:43;;;;;;;18.03;9.77;;;4.90;94.70;;;;;;5012562;28;20126;-65
2020/12/14 06:01:09;;;;;;;18.73;9.90;;;5.00;94.70;;;;;;5012549;28;20049;-65
2020/12/14 06:03:37;;;;;;;18.37;9.37;;;5.00;94.80;;;;;;5012491;28;20049;-65
2020/12/14 06:06:05;;;;;;;18.87;10.43;;;5.10;94.90;;;;;;5013177;28;20177;-66
2020/12/14 06:08:36;;;;;;;18.47;10.37;;;5.10;94.80;;;;;;5012984;28;20438;-65
2020/12/14 06:11:04;;;;;;;16.97;9.73;;;5.20;94.80;;;;;;5013288;28;20052;-66
2020/12/14 06:13:31;;;;;;;17.90;9.67;;;5.20;94.70;;;;;;5011905;28;20181;-65
2020/12/14 06:16:01;;;;;;;15.50;8.57;;;5.30;94.70;;;;;;5012800;28;20087;-65
2020/12/14 06:18:33;;;;;;;17.85;9.45;;;5.30;94.60;;;;;;5012707;28;20087;-65
2020/12/14 06:21:02;;;;;;;16.93;9.83;;;5.30;94.60;;;;;;5012216;28;20042;-65
2020/12/14 06:23:38;;;;;;;15.90;8.97;;;5.40;94.60;;;;;;5010047;28;20530;-67
2020/12/14 06:26:06;;;;;;;17.20;9.20;;;5.50;94.50;;;;;;5010891;28;20061;-65
2020/12/14 06:28:34;;;;;;;19.00;9.20;;;5.50;94.40;;;;;;5007678;28;20049;-66
2020/12/14 06:31:00;;;;;;;18.10;8.60;;;5.50;94.40;;;;;;5011450;28;20057;-65
2020/12/14 06:33:39;;;;;;;15.87;8.77;;;5.50;94.30;;;;;;5012056;28;20026;-65
2020/12/14 06:36:21;;;;;;;17.13;8.57;;;5.50;94.20;;;;;;5011355;28;20510;-65
2020/12/14 06:38:49;;;;;;;16.13;9.40;;;5.60;94.20;;;;;;5009525;28;20038;-66
2020/12/14 06:41:20;;;;;;;16.70;8.53;;;5.60;94.30;;;;;;5012234;28;20037;-65
2020/12/14 06:43:49;;;;;;;19.85;9.23;;;5.50;94.10;;;;;;4991038;28;20411;-65
2020/12/14 06:46:36;;;;;;;15.10;8.27;;;5.60;94.00;;;;;;5007400;28;20030;-65
2020/12/14 06:49:02;;;;;;;16.40;8.57;;;5.60;93.90;;;;;;5004699;28;20120;-67
2020/12/14 06:51:54;;;;;;;16.03;9.00;;;5.50;93.70;;;;;;5007327;28;20052;-66
2020/12/14 06:54:52;;;;;;;17.60;8.17;;;5.50;93.70;;;;;;5004455;28;20037;-66
2020/12/14 06:57:35;;;;;;;16.80;8.80;;;5.50;93.70;;;;;;5016673;28;20046;-66
2020/12/14 07:00:01;;;;;;;16.17;8.90;;;5.50;93.80;;;;;;5010945;28;20457;-66
2020/12/14 07:02:41;;;;;;;17.93;8.73;;;5.50;93.70;;;;;;5025751;28;20044;-66
2020/12/14 07:05:34;;;;;;;14.57;8.97;;;5.50;93.70;;;;;;5012125;28;20053;-66
2020/12/14 07:08:00;;;;;;;16.17;8.43;;;5.50;93.50;;;;;;5011557;28;20096;-66
2020/12/14 07:10:28;;;;;;;16.60;8.40;;;5.50;93.60;;;;;;5012113;28;20038;-66
2020/12/14 07:12:55;;;;;;;16.10;8.10;;;5.40;93.60;;;;;;5009723;28;20392;-66
2020/12/14 07:15:30;;;;;;;15.73;9.47;;;5.50;93.50;;;;;;5011997;28;20052;-65
2020/12/14 07:18:05;;;;;;;16.07;8.63;;;5.50;93.40;;;;;;5011390;28;20076;-67
2020/12/14 07:20:32;;;;;;;15.00;8.50;;;5.40;93.30;;;;;;5012014;28;20037;-65
2020/12/14 07:23:18;;;;;;;14.53;7.37;;;5.40;93.40;;;;;;5010828;28;20457;-65
2020/12/14 07:25:48;;;;;;;16.60;8.37;;;5.50;93.50;;;;;;5043343;28;20038;-65
2020/12/14 07:28:14;;;;;;;15.43;8.23;;;5.50;93.40;;;;;;5011314;28;20491;-65
2020/12/14 07:30:40;;;;;;;15.03;8.23;;;5.50;93.40;;;;;;5010561;28;20045;-65
2020/12/14 07:33:06;;;;;;;16.13;8.83;;;5.50;93.40;;;;;;5010724;28;20526;-66
2020/12/14 07:35:32;;;;;;;14.13;7.10;;;5.60;93.30;;;;;;5011657;28;20037;-66
2020/12/14 07:37:58;;;;;;;13.50;7.40;;;5.60;93.30;;;;;;5012110;28;20541;-66
2020/12/14 07:40:23;;;;;;;13.40;7.63;;;5.60;93.20;;;;;;5011136;28;20129;-66
2020/12/14 07:42:49;;;;;;;14.47;7.90;;;5.70;93.20;;;;;;5010893;28;20553;-66
2020/12/14 07:45:23;;;;;;;14.07;7.47;;;5.80;93.20;;;;;;5011597;28;20038;-67
2020/12/14 07:47:51;;;;;;;14.10;7.80;;;5.70;93.10;;;;;;5009951;28;20418;-65
2020/12/14 07:50:22;;;;;;;13.63;7.70;;;5.80;93.10;;;;;;5010130;28;20461;-66
2020/12/14 07:52:50;;;;;;;14.23;7.93;;;5.80;93.10;;;;;;5010565;28;20053;-65
2020/12/14 07:55:17;;;;;;;13.30;7.53;;;5.80;93.00;;;;;;5011396;28;20038;-66
2020/12/14 07:57:45;;;;;;;14.13;7.77;;;5.80;92.90;;;;;;5010877;28;20037;-66
2020/12/14 08:00:15;;;;;;;14.23;8.17;;;5.90;92.90;;;;;;5011013;28;20137;-65
2020/12/14 08:02:42;;;;;;;;;;;5.90;92.90;;;;;;5010960;28;20125;-65
2020/12/14 08:05:13;;;;;;;13.00;7.40;;;5.90;92.80;;;;;;5011290;28;19920;-65
2020/12/14 08:07:52;;;;;;;13.23;7.60;;;5.90;92.80;;;;;;5009896;28;20422;-66
2020/12/14 08:10:20;;;;;;;12.33;6.93;;;5.90;92.70;;;;;;5010853;28;20111;-66
2020/12/14 08:12:46;;;;;;;12.77;7.10;;;6.00;92.70;;;;;;5010478;28;20038;-66
2020/12/14 08:15:19;;;;;;;14.43;7.70;;;6.00;92.60;;;;;;5009031;28;20065;-66
2020/12/14 08:17:46;;;;;;;14.37;7.27;;;6.00;92.50;;;;;;5011254;28;20088;-66
2020/12/14 08:20:28;;;;;;;13.37;7.40;;;6.00;92.50;;;;;;5010490;28;20073;-66
2020/12/14 08:22:56;;;;;;;12.73;6.27;;;6.00;92.40;;;;;;5010508;28;20049;-66
2020/12/14 08:25:24;;;;;;;12.73;7.07;;;6.00;92.40;;;;;;5041688;28;20487;-66
2020/12/14 08:27:54;;;;;;;14.40;7.10;;;6.00;92.30;;;;;;5011085;28;20084;-66
2020/12/14 08:30:21;;;;;;;12.52;6.78;;;6.10;92.40;;;;;;5010582;28;20121;-66
2020/12/14 08:33:13;;;;;;;12.20;6.43;;;6.10;92.30;;;;;;5010475;28;20026;-66
2020/12/14 08:35:40;;;;;;;12.77;7.30;;;6.10;92.20;;;;;;5010697;28;20042;-66
2020/12/14 08:38:12;;;;;;;13.20;7.23;;;6.10;92.10;;;;;;5010860;28;20038;-65
2020/12/14 08:40:39;;;;;;;12.23;6.93;;;6.10;92.10;;;;;;5009178;28;20041;-66
2020/12/14 08:43:13;;;;;;;11.67;6.70;;;6.10;92.10;;;;;;5010580;28;20038;-66
2020/12/14 08:46:02;;;;;;;12.83;7.20;;;6.20;92.00;;;;;;5010410;28;20053;-66
2020/12/14 08:48:39;;;;;;;11.70;6.60;;;6.20;92.00;;;;;;5009417;28;20029;-66
2020/12/14 08:51:19;;;;;;;11.80;6.53;;;6.20;91.90;;;;;;5010521;28;20037;-65
2020/12/14 08:53:46;;;;;;;13.63;7.10;;;6.20;91.90;;;;;;5040958;28;20443;-66
2020/12/14 08:56:18;;;;;;;12.03;6.30;;;6.20;91.80;;;;;;5010682;28;20021;-65
2020/12/14 08:58:47;;;;;;;12.00;6.07;;;6.30;91.80;;;;;;5010641;28;20049;-66
2020/12/14 09:01:14;;;;;;;11.50;6.23;;;6.30;91.70;;;;;;5010347;28;20045;-66
2020/12/14 09:03:47;;;;;;;12.83;6.17;;;6.30;91.70;;;;;;5010210;28;20026;-65
2020/12/14 09:06:30;;;;;;;10.87;5.70;;;6.30;91.60;;;;;;5010035;28;20403;-66
2020/12/14 09:09:11;;;;;;;11.77;5.80;;;6.40;91.60;;;;;;5010684;28;20044;-66
2020/12/14 09:11:57;;;;;;;10.20;5.60;;;6.40;91.50;;;;;;5010234;28;20042;-66
2020/12/14 09:14:25;;;;;;;10.87;6.10;;;6.40;91.50;;;;;;5012316;28;20046;-66
2020/12/14 09:16:58;;;;;;;11.47;5.90;;;6.50;91.40;;;;;;5013935;28;20046;-66
2020/12/14 09:19:29;;;;;;;12.30;5.97;;;6.50;91.40;;;;;;5013796;28;20046;-66
2020/12/14 09:21:55;;;;;;;11.77;5.70;;;6.50;91.40;;;;;;5013572;28;20464;-66
2020/12/14 09:24:28;;;;;;;10.63;4.93;;;6.70;91.40;;;;;;5012423;28;20069;-68
2020/12/14 09:27:11;;;;;;;10.00;5.60;;;6.70;91.30;;;;;;5014047;28;20058;-65
2020/12/14 09:29:38;;;;;;;11.60;5.53;;;6.70;91.20;;;;;;5044263;28;20100;-66
2020/12/14 09:32:05;;;;;;;10.27;5.40;;;6.70;91.20;;;;;;5013279;28;20062;-65
2020/12/14 09:34:32;;;;;;;10.50;5.43;;;6.70;91.20;;;;;;5013530;28;20044;-66
2020/12/14 09:36:59;;;;;;;10.83;5.77;;;6.80;91.10;;;;;;5045409;28;20050;-65
2020/12/14 09:39:27;;;;;;;10.53;5.53;;;6.80;91.10;;;;;;5045435;28;20038;-66
2020/12/14 09:41:55;;;;;;;9.70;5.17;;;6.90;91.00;;;;;;5012793;28;20049;-66
2020/12/14 09:44:21;;;;;;;11.37;5.77;;;6.90;90.90;;;;;;5013703;28;20517;-66
2020/12/14 09:46:47;;;;;;;9.30;5.20;;;6.90;90.80;;;;;;5013135;28;20030;-66
2020/12/14 09:49:13;;;;;;;10.57;5.03;;;6.90;90.80;;;;;;5013700;28;20514;-66
2020/12/14 09:51:39;;;;;;;9.37;5.20;;;7.00;90.80;;;;;;5013160;28;20038;-66
2020/12/14 09:54:06;;;;;;;9.53;5.47;;;7.00;90.60;;;;;;5013030;28;20457;-66
2020/12/14 09:56:33;;;;;;;10.17;5.00;;;7.00;90.70;;;;;;5013298;28;20129;-66
2020/12/14 09:59:00;;;;;;;10.10;5.30;;;7.00;90.60;;;;;;5028198;28;20041;-66
2020/12/14 10:01:28;;;;;;;8.93;4.90;;;7.10;90.60;;;;;;5013327;28;20442;-66
2020/12/14 10:03:54;;;;;;;10.20;5.30;;;7.10;90.60;;;;;;5012840;28;20038;-66
2020/12/14 10:06:20;;;;;;;10.53;5.20;;;7.20;90.50;;;;;;5012754;28;20398;-66
2020/12/14 10:08:46;;;;;;;11.10;5.37;;;7.20;90.50;;;;;;5013306;28;20034;-65
2020/12/14 10:11:12;;;;;;;11.17;5.87;;;7.30;90.40;;;;;;5012840;28;20041;-66
2020/12/14 10:13:39;;;;;;;10.00;4.90;;;7.30;90.10;;;;;;5009950;28;20045;-66
2020/12/14 10:16:06;;;;;;;10.13;5.33;;;7.20;89.90;;;;;;5012588;28;20044;-68
2020/12/14 10:18:32;;;;;;;11.53;5.40;;;7.20;90.00;;;;;;5011683;28;20510;-66
2020/12/14 10:21:02;;;;;;;10.07;5.47;;;7.10;90.20;;;;;;5011757;28;20041;-65
2020/12/14 10:23:28;;;;;;;10.33;5.30;;;7.10;90.30;;;;;;5010494;28;20041;-65
2020/12/14 10:25:54;;;;;;;12.87;6.00;;;7.00;90.40;;;;;;5012897;28;20049;-66
2020/12/14 10:28:20;;;;;;;13.27;5.90;;;7.00;90.30;;;;;;5012972;28;20117;-66
2020/12/14 10:30:46;;;;;;;10.37;5.90;;;6.90;90.30;;;;;;5012266;28;20121;-65
2020/12/14 10:33:12;;;;;;;15.40;5.90;;;6.80;90.50;;;;;;5010818;28;20037;-66
2020/12/14 10:35:38;;;;;;;11.13;6.13;;;6.80;91.00;;;;;;5012144;28;20034;-66
2020/12/14 10:38:03;;;;;;;11.50;6.07;;;6.80;90.90;;;;;;5012612;28;20033;-65
2020/12/14 10:40:29;;;;;;;10.77;5.83;;;6.80;90.90;;;;;;5012467;28;20053;-65
2020/12/14 10:42:56;;;;;;;10.77;5.70;;;6.80;90.80;;;;;;5011791;28;20038;-65
2020/12/14 10:45:22;;;;;;;11.67;5.90;;;6.80;90.90;;;;;;5012397;28;20194;-66
2020/12/14 10:47:48;;;;;;;9.97;5.63;;;6.70;91.00;;;;;;5011863;28;20091;-66
2020/12/14 10:50:16;;;;;;;10.67;5.67;;;6.70;91.20;;;;;;5012410;28;20128;-66
2020/12/14 10:52:42;;;;;;;13.13;5.73;;;6.70;91.30;;;;;;5011385;28;20034;-66
2020/12/14 10:55:08;;;;;;;11.10;5.87;;;6.80;91.30;;;;;;5011090;28;20093;-66
2020/12/14 10:57:33;;;;;;;10.90;5.77;;;6.80;91.30;;;;;;5010954;28;20041;-66
2020/12/14 11:00:09;;;;;;;11.30;5.90;;;6.80;91.40;;;;;;5043598;28;20502;-66
2020/12/14 11:02:39;;;;;;;11.63;5.97;;;6.80;91.50;;;;;;5025578;28;20167;-66
2020/12/14 11:05:10;;;;;;;10.25;5.63;;;6.80;91.50;;;;;;5011769;28;20038;-66
2020/12/14 11:07:36;;;;;;;9.55;5.35;;;6.80;91.40;;;;;;5011982;28;20034;-66
2020/12/14 11:10:06;;;;;;;10.87;6.37;;;6.80;91.60;;;;;;5010241;28;20442;-67
2020/12/14 11:12:32;;;;;;;8.98;5.07;;;6.80;91.70;;;;;;5011567;28;20038;-66
2020/12/14 11:14:58;;;;;;;10.43;5.60;;;6.70;91.60;;;;;;5011494;28;20513;-67
2020/12/14 11:17:24;;;;;;;10.37;5.13;;;6.70;91.70;;;;;;5010287;28;20046;-66
2020/12/14 11:19:49;;;;;;;10.27;5.17;;;6.60;91.80;;;;;;5043498;28;20057;-66
2020/12/14 11:22:16;;;;;;;9.93;5.10;;;6.60;91.90;;;;;;5026025;28;20454;-66
2020/12/14 11:24:42;;;;;;;9.13;5.20;;;6.60;92.20;;;;;;5010593;28;20108;-66
2020/12/14 11:27:08;;;;;;;9.83;5.27;;;6.60;92.10;;;;;;5011438;28;20129;-67
2020/12/14 11:29:33;;;;;;;10.27;5.13;;;6.60;92.20;;;;;;5011593;28;20054;-66
2020/12/14 11:31:59;;;;;;;11.70;5.47;;;6.60;92.40;;;;;;5011067;28;20046;-66
2020/12/14 11:34:25;;;;;;;10.70;4.60;;;6.60;92.40;;;;;;5010749;28;20042;-67
2020/12/14 11:36:51;;;;;;;9.00;5.27;;;6.60;92.50;;;;;;5011574;28;20038;-66
2020/12/14 11:39:17;;;;;;;9.23;5.23;;;6.70;92.50;;;;;;5011591;28;20511;-65
2020/12/14 11:41:49;;;;;;;8.47;4.33;;;6.70;92.60;;;;;;5010680;28;20091;-66
2020/12/14 11:44:15;;;;;;;8.17;4.30;;;6.70;92.50;;;;;;5011409;28;20100;-67
2020/12/14 11:46:48;;;;;;;9.57;4.90;;;6.70;92.60;;;;;;5009674;28;20116;-66
2020/12/14 11:49:13;;;;;;;12.07;4.50;;;6.70;92.60;;;;;;5042245;28;20061;-67
2020/12/14 11:51:39;;;;;;;9.47;4.80;;;6.70;92.70;;;;;;5010525;28;20034;-66
2020/12/14 11:54:05;;;;;;;11.00;4.87;;;6.80;92.80;;;;;;5011175;28;20072;-66
2020/12/14 11:56:31;;;;;;;10.43;5.03;;;6.90;92.90;;;;;;5011367;28;20034;-66
2020/12/14 11:58:56;;;;;;;8.43;4.60;;;6.90;93.00;;;;;;5010755;28;20042;-66
2020/12/14 12:01:23;;;;;;;9.93;5.07;;;7.00;92.90;;;;;;5042858;28;20491;-66
2020/12/14 12:03:49;;;;;;;8.33;4.63;;;7.00;92.80;;;;;;5010197;28;20037;-65
2020/12/14 12:06:16;;;;;;;12.53;5.13;;;7.00;92.70;;;;;;5011147;28;20041;-66
2020/12/14 12:08:42;;;;;;;11.10;5.13;;;7.00;92.70;;;;;;5011346;28;20232;-65
2020/12/14 12:11:13;;;;;;;9.90;5.20;;;7.00;92.80;;;;;;5010780;28;20042;-66
2020/12/14 12:13:40;;;;;;;11.07;5.27;;;7.00;92.60;;;;;;5009254;28;20046;-65
2020/12/14 12:16:08;;;;;;;13.33;5.50;;;7.00;92.70;;;;;;5010515;28;20046;-66
2020/12/14 12:18:34;;;;;;;10.83;5.43;;;7.00;92.80;;;;;;5009696;28;20030;-65
2020/12/14 12:21:00;;;;;;;10.70;5.03;;;7.00;92.90;;;;;;5010799;28;20518;-66
2020/12/14 12:23:26;;;;;;;8.77;4.87;;;7.00;93.00;;;;;;5042212;28;20026;-66
2020/12/14 12:25:52;;;;;;;9.23;5.10;;;7.00;92.90;;;;;;5011021;28;20045;-66
2020/12/14 12:28:18;;;;;;;9.43;4.93;;;7.10;93.00;;;;;;5010427;28;20116;-66
2020/12/14 12:30:44;;;;;;;11.50;5.47;;;7.00;93.00;;;;;;5011090;28;20117;-66
2020/12/14 12:33:10;;;;;;;9.93;5.57;;;7.10;93.00;;;;;;5010185;28;20042;-66
2020/12/14 12:35:36;;;;;;;10.60;5.70;;;7.10;93.10;;;;;;5009749;28;20084;-66
2020/12/14 12:38:01;;;;;;;10.33;5.43;;;7.10;93.20;;;;;;5009604;28;20038;-66
2020/12/14 12:40:27;;;;;;;11.07;5.67;;;7.10;93.20;;;;;;5010425;28;20064;-67
2020/12/14 12:42:53;;;;;;;11.63;5.80;;;7.20;93.10;;;;;;5041944;28;20042;-66
2020/12/14 12:45:18;;;;;;;9.87;5.43;;;7.20;93.10;;;;;;5010557;28;20124;-66
2020/12/14 12:47:45;;;;;;;12.40;5.47;;;7.10;93.10;;;;;;5012836;28;20517;-66